Time;durP1;ratioP1;P1;durP2;ratioP2;P2;SDS_P1;SDS_P2;PMS_P1;PMS_P2;Temp;Humidity;BMP_temperature;BMP_pressure;BME280_temperature;BME280_humidity;BME280_pressure;Samples;Min_cycle;Max_cycle;Signal;HPM_P1;HPM_P2
2024/02/16 00:01:27;;;;;;;20.40;19.20;;;;;;;;;;4991374;28;20862;-77
2024/02/16 00:03:54;;;;;;;21.17;20.10;;;;;;;;;;4990626;28;20532;-77
2024/02/16 00:06:21;;;;;;;19.97;18.77;;;;;;;;;;4990494;28;20425;-78
2024/02/16 00:08:48;;;;;;;20.37;19.17;;;;;;;;;;4991487;28;20469;-78
2024/02/16 00:11:16;;;;;;;20.50;19.40;;;;;;;;;;4984970;28;20470;-78
2024/02/16 00:13:43;;;;;;;22.33;20.57;;;;;;;;;;4971891;28;20446;-78
2024/02/16 00:16:10;;;;;;;20.03;19.03;;;;;;;;;;4971177;28;20486;-77
2024/02/16 00:18:37;;;;;;;20.07;19.00;;;;;;;;;;4971763;28;20560;-77
2024/02/16 00:21:05;;;;;;;21.00;19.93;;;;;;;;;;4971806;28;20501;-78
2024/02/16 00:23:33;;;;;;;19.77;18.83;;;;;;;;;;4982059;28;20461;-77
2024/02/16 00:26:02;;;;;;;20.63;19.63;;;;;;;;;;4971563;28;20434;-78
2024/02/16 00:28:30;;;;;;;21.37;20.07;;;;;;;;;;4991056;28;20461;-78
2024/02/16 00:30:57;;;;;;;20.63;19.63;;;;;;;;;;4991134;28;20491;-77
2024/02/16 00:33:24;;;;;;;20.93;19.83;;;;;;;;;;4990949;28;20461;-77
2024/02/16 00:35:52;;;;;;;22.20;21.07;;;;;;;;;;4976325;28;20501;-77
2024/02/16 00:38:19;;;;;;;20.93;19.93;;;;;;;;;;4989826;28;20864;-77
2024/02/16 00:40:46;;;;;;;21.03;19.83;;;;;;;;;;4990993;28;20445;-78
2024/02/16 00:43:14;;;;;;;21.40;20.30;;;;;;;;;;4990754;28;20445;-77
2024/02/16 00:45:44;;;;;;;21.93;20.43;;;;;;;;;;4974793;28;20450;-78
2024/02/16 00:48:11;;;;;;;21.53;20.53;;;;;;;;;;4971092;28;20533;-77
2024/02/16 00:50:38;;;;;;;21.23;20.13;;;;;;;;;;4971762;28;20424;-78
2024/02/16 00:53:05;;;;;;;20.90;19.90;;;;;;;;;;4971635;28;20489;-78
2024/02/16 00:55:32;;;;;;;20.53;19.43;;;;;;;;;;4971437;28;20485;-77
2024/02/16 00:57:59;;;;;;;21.00;20.00;;;;;;;;;;4970576;28;20461;-77
2024/02/16 01:00:26;;;;;;;19.70;18.60;;;;;;;;;;4971032;28;20466;-77
2024/02/16 01:02:54;;;;;;;19.57;18.57;;;;;;;;;;4971407;28;20459;-77
2024/02/16 01:05:23;;;;;;;21.67;20.50;;;;;;;;;;4971214;28;20458;-78
2024/02/16 01:07:50;;;;;;;22.00;21.00;;;;;;;;;;4970822;28;20528;-78
2024/02/16 01:10:17;;;;;;;21.30;20.27;;;;;;;;;;4971683;28;20447;-77
2024/02/16 01:12:44;;;;;;;20.63;19.53;;;;;;;;;;4989909;28;20461;-77
2024/02/16 01:15:11;;;;;;;22.10;20.90;;;;;;;;;;4991316;28;20508;-78
2024/02/16 01:17:38;;;;;;;20.00;19.00;;;;;;;;;;4993927;28;20473;-78
2024/02/16 01:20:10;;;;;;;19.93;18.73;;;;;;;;;;5000474;28;20502;-78
2024/02/16 01:22:37;;;;;;;20.43;19.20;;;;;;;;;;5014305;28;20495;-78
2024/02/16 01:25:04;;;;;;;21.30;20.20;;;;;;;;;;5014035;28;20452;-78
2024/02/16 01:27:32;;;;;;;21.13;19.60;;;;;;;;;;5001566;28;20841;-78
2024/02/16 01:30:00;;;;;;;21.80;20.30;;;;;;;;;;4994473;28;20950;-77
2024/02/16 01:32:27;;;;;;;20.83;19.70;;;;;;;;;;4994542;28;20484;-77
2024/02/16 01:34:54;;;;;;;21.00;19.90;;;;;;;;;;4994122;28;20508;-78
2024/02/16 01:37:22;;;;;;;20.93;19.93;;;;;;;;;;4993586;28;20547;-78
2024/02/16 01:39:49;;;;;;;21.63;20.23;;;;;;;;;;4994440;28;20454;-77
2024/02/16 01:42:16;;;;;;;20.77;19.67;;;;;;;;;;4994286;28;20437;-78
2024/02/16 01:44:43;;;;;;;21.63;20.53;;;;;;;;;;4994024;28;20445;-76
2024/02/16 01:47:10;;;;;;;23.70;22.50;;;;;;;;;;4993721;28;20461;-78
2024/02/16 01:49:37;;;;;;;22.37;21.27;;;;;;;;;;4994027;28;20477;-77
2024/02/16 01:52:04;;;;;;;22.03;20.90;;;;;;;;;;4993649;28;20457;-77
2024/02/16 01:54:32;;;;;;;21.80;20.70;;;;;;;;;;4986527;28;20458;-78
2024/02/16 01:57:00;;;;;;;23.27;21.97;;;;;;;;;;4973013;28;20877;-77
2024/02/16 01:59:27;;;;;;;22.30;21.03;;;;;;;;;;4983551;28;20485;-78
2024/02/16 02:01:54;;;;;;;22.47;21.30;;;;;;;;;;4993005;28;20536;-78
2024/02/16 02:04:21;;;;;;;23.63;22.10;;;;;;;;;;4974952;28;20520;-77
2024/02/16 02:06:48;;;;;;;22.93;21.70;;;;;;;;;;4984629;28;20861;-78
2024/02/16 02:09:15;;;;;;;22.10;21.00;;;;;;;;;;4986321;28;20886;-77
2024/02/16 02:11:43;;;;;;;22.80;21.43;;;;;;;;;;4988780;28;20432;-77
2024/02/16 02:14:11;;;;;;;22.37;21.17;;;;;;;;;;4992569;28;20814;-78
2024/02/16 02:16:38;;;;;;;23.80;22.53;;;;;;;;;;4992954;28;20497;-78
2024/02/16 02:19:06;;;;;;;23.10;22.10;;;;;;;;;;4993036;28;20469;-77
2024/02/16 02:21:33;;;;;;;24.23;22.73;;;;;;;;;;4993151;28;20445;-77
2024/02/16 02:24:01;;;;;;;22.13;21.07;;;;;;;;;;4993129;28;20508;-77
2024/02/16 02:26:28;;;;;;;22.40;21.23;;;;;;;;;;4992401;28;20445;-78
2024/02/16 02:28:55;;;;;;;23.80;22.47;;;;;;;;;;4992553;28;20470;-77
2024/02/16 02:31:22;;;;;;;23.27;21.83;;;;;;;;;;4992378;28;20449;-77
2024/02/16 02:33:49;;;;;;;22.43;21.30;;;;;;;;;;4992984;28;20589;-77
2024/02/16 02:36:16;;;;;;;22.33;21.33;;;;;;;;;;4992676;28;20540;-77
2024/02/16 02:38:44;;;;;;;23.13;21.77;;;;;;;;;;4992415;28;20472;-78
2024/02/16 02:41:22;;;;;;;23.67;22.10;;;;;;;;;;4992373;28;20432;-77
2024/02/16 02:43:49;;;;;;;22.47;21.27;;;;;;;;;;5010069;28;20449;-77
2024/02/16 02:46:16;;;;;;;22.40;21.00;;;;;;;;;;5010538;28;20445;-78
2024/02/16 02:48:44;;;;;;;21.00;19.90;;;;;;;;;;4984021;28;20504;-78
2024/02/16 02:51:10;;;;;;;20.87;19.70;;;;;;;;;;4979302;28;20878;-78
2024/02/16 02:53:37;;;;;;;21.47;20.27;;;;;;;;;;4985076;28;20484;-78
2024/02/16 02:56:05;;;;;;;21.20;20.10;;;;;;;;;;4973325;28;20486;-78
2024/02/16 02:58:33;;;;;;;22.57;21.27;;;;;;;;;;4973205;28;20470;-79
2024/02/16 03:01:00;;;;;;;22.30;21.03;;;;;;;;;;4973231;28;20435;-79
2024/02/16 03:03:29;;;;;;;21.53;20.13;;;;;;;;;;4973268;28;20512;-78
2024/02/16 03:05:56;;;;;;;21.07;20.00;;;;;;;;;;4972272;28;20474;-79
2024/02/16 03:08:23;;;;;;;20.73;19.70;;;;;;;;;;4972801;28;21058;-78
2024/02/16 03:10:50;;;;;;;21.57;20.33;;;;;;;;;;4973141;28;20855;-77
2024/02/16 03:13:18;;;;;;;22.37;21.27;;;;;;;;;;4973401;28;20434;-79
2024/02/16 03:15:47;;;;;;;20.93;19.73;;;;;;;;;;4972957;28;20490;-79
2024/02/16 03:18:14;;;;;;;21.43;20.23;;;;;;;;;;4971433;28;20467;-78
2024/02/16 03:20:45;;;;;;;21.53;20.33;;;;;;;;;;4977475;28;20457;-78
2024/02/16 03:23:12;;;;;;;23.17;21.73;;;;;;;;;;5005131;28;20985;-78
2024/02/16 03:25:40;;;;;;;21.87;20.67;;;;;;;;;;4972416;28;20478;-78
2024/02/16 03:28:07;;;;;;;22.77;21.40;;;;;;;;;;4988999;28;20476;-77
2024/02/16 03:30:35;;;;;;;23.53;22.07;;;;;;;;;;5009005;28;20796;-78
2024/02/16 03:33:03;;;;;;;22.10;21.00;;;;;;;;;;5006444;28;20482;-79
2024/02/16 03:35:30;;;;;;;22.57;21.27;;;;;;;;;;4979941;28;20454;-78
2024/02/16 03:37:57;;;;;;;22.30;21.10;;;;;;;;;;4975822;28;20528;-78
2024/02/16 03:40:24;;;;;;;22.53;21.23;;;;;;;;;;4979760;28;21013;-78
2024/02/16 03:42:51;;;;;;;24.30;23.13;;;;;;;;;;4988818;28;20469;-77
2024/02/16 03:45:18;;;;;;;23.23;21.67;;;;;;;;;;4991868;28;20942;-79
2024/02/16 03:47:48;;;;;;;21.93;20.83;;;;;;;;;;4984605;28;20470;-79
2024/02/16 03:50:16;;;;;;;22.13;21.00;;;;;;;;;;4973587;28;20433;-79
2024/02/16 03:52:43;;;;;;;22.50;21.50;;;;;;;;;;4979497;28;20561;-77
2024/02/16 03:55:10;;;;;;;23.67;22.27;;;;;;;;;;4973115;28;20437;-78
2024/02/16 03:57:39;;;;;;;22.83;21.60;;;;;;;;;;4976521;28;21407;-78
2024/02/16 04:00:07;;;;;;;21.33;20.33;;;;;;;;;;4972113;28;20461;-77
2024/02/16 04:02:34;;;;;;;22.73;21.43;;;;;;;;;;4983888;28;21108;-78
2024/02/16 04:05:01;;;;;;;23.10;22.00;;;;;;;;;;4979310;28;20536;-78
2024/02/16 04:07:29;;;;;;;23.47;22.30;;;;;;;;;;4978963;28;20536;-77
2024/02/16 04:09:56;;;;;;;23.80;22.30;;;;;;;;;;4997071;28;20458;-77
2024/02/16 04:12:23;;;;;;;22.73;21.43;;;;;;;;;;4971647;28;21013;-78
2024/02/16 04:14:50;;;;;;;24.40;23.27;;;;;;;;;;4975669;28;20548;-77
2024/02/16 04:17:17;;;;;;;24.13;22.77;;;;;;;;;;4971328;28;20528;-77
2024/02/16 04:19:45;;;;;;;24.60;23.37;;;;;;;;;;4972783;28;20474;-79
2024/02/16 04:22:12;;;;;;;23.10;22.00;;;;;;;;;;4977951;28;20483;-78
2024/02/16 04:24:40;;;;;;;24.07;22.90;;;;;;;;;;4972029;28;20552;-77
2024/02/16 04:27:07;;;;;;;23.40;22.30;;;;;;;;;;4981453;28;20504;-78
2024/02/16 04:29:34;;;;;;;23.90;22.60;;;;;;;;;;4978646;28;20483;-79
2024/02/16 04:32:01;;;;;;;24.53;23.13;;;;;;;;;;4979061;28;20524;-78
2024/02/16 04:34:29;;;;;;;24.80;23.10;;;;;;;;;;4988231;28;20489;-78
2024/02/16 04:36:56;;;;;;;24.23;22.70;;;;;;;;;;4986021;28;21022;-78
2024/02/16 04:39:23;;;;;;;24.10;22.80;;;;;;;;;;4990807;28;20990;-78
2024/02/16 04:41:53;;;;;;;23.83;22.20;;;;;;;;;;4990399;28;20503;-79
2024/02/16 04:44:20;;;;;;;23.03;21.83;;;;;;;;;;4978193;28;20537;-77
2024/02/16 04:46:47;;;;;;;24.07;22.67;;;;;;;;;;4975869;28;20932;-78
2024/02/16 04:49:14;;;;;;;23.00;21.90;;;;;;;;;;4974372;28;20525;-79
2024/02/16 04:51:41;;;;;;;24.27;23.07;;;;;;;;;;4981462;28;20466;-77
2024/02/16 04:54:08;;;;;;;23.97;22.47;;;;;;;;;;4979434;28;20463;-78
2024/02/16 04:56:35;;;;;;;22.83;21.50;;;;;;;;;;4988778;28;20517;-78
2024/02/16 04:59:04;;;;;;;24.50;23.30;;;;;;;;;;4980382;28;20463;-78
2024/02/16 05:01:31;;;;;;;24.80;23.40;;;;;;;;;;4992222;28;20465;-78
2024/02/16 05:04:01;;;;;;;23.53;22.33;;;;;;;;;;4992138;28;20486;-77
2024/02/16 05:06:28;;;;;;;25.93;24.43;;;;;;;;;;4974531;28;20453;-78
2024/02/16 05:08:57;;;;;;;25.73;24.47;;;;;;;;;;4984629;28;20473;-78
2024/02/16 05:11:25;;;;;;;26.13;24.60;;;;;;;;;;4994296;28;20457;-78
2024/02/16 05:13:52;;;;;;;26.37;25.07;;;;;;;;;;4994572;28;20460;-78
2024/02/16 05:16:21;;;;;;;26.47;25.03;;;;;;;;;;4986291;28;20453;-77
2024/02/16 05:18:48;;;;;;;24.97;23.67;;;;;;;;;;4987260;28;20500;-78
2024/02/16 05:21:14;;;;;;;25.20;23.90;;;;;;;;;;4994532;28;20488;-78
2024/02/16 05:23:41;;;;;;;26.20;24.80;;;;;;;;;;4988263;28;20921;-77
2024/02/16 05:26:08;;;;;;;26.87;25.27;;;;;;;;;;4980194;28;20476;-79
2024/02/16 05:28:35;;;;;;;25.30;23.90;;;;;;;;;;4983780;28;20503;-78
2024/02/16 05:31:15;;;;;;;26.80;25.40;;;;;;;;;;4975067;28;20454;-78
2024/02/16 05:33:43;;;;;;;25.90;24.63;;;;;;;;;;4974759;28;20461;-78
2024/02/16 05:36:09;;;;;;;25.40;24.00;;;;;;;;;;4973658;28;20488;-78
2024/02/16 05:38:40;;;;;;;26.80;25.40;;;;;;;;;;4973986;28;20862;-78
2024/02/16 05:41:07;;;;;;;25.70;24.27;;;;;;;;;;4973257;28;20498;-77
2024/02/16 05:43:34;;;;;;;25.70;23.80;;;;;;;;;;4973630;28;21012;-77
2024/02/16 05:46:01;;;;;;;25.60;24.20;;;;;;;;;;4985267;28;20829;-78
2024/02/16 05:48:30;;;;;;;26.30;24.77;;;;;;;;;;4975348;28;20474;-77
2024/02/16 05:51:00;;;;;;;25.97;24.77;;;;;;;;;;4986617;28;20458;-78
2024/02/16 05:53:27;;;;;;;26.50;24.87;;;;;;;;;;4975639;28;20465;-79
2024/02/16 05:55:55;;;;;;;27.30;25.70;;;;;;;;;;4983933;28;20508;-78
2024/02/16 05:58:22;;;;;;;27.07;25.67;;;;;;;;;;4993133;28;20489;-77
2024/02/16 06:00:49;;;;;;;26.83;25.33;;;;;;;;;;4988860;28;20462;-78
2024/02/16 06:03:16;;;;;;;25.83;24.57;;;;;;;;;;4976860;28;20509;-77
2024/02/16 06:05:44;;;;;;;24.70;23.60;;;;;;;;;;5012158;28;20453;-77
2024/02/16 06:08:12;;;;;;;25.90;24.50;;;;;;;;;;5013117;28;20479;-77
2024/02/16 06:10:41;;;;;;;26.27;24.80;;;;;;;;;;5013347;28;20526;-78
2024/02/16 06:13:08;;;;;;;27.17;25.77;;;;;;;;;;4974332;28;20450;-77
2024/02/16 06:15:37;;;;;;;26.83;25.30;;;;;;;;;;4978261;28;20459;-77
2024/02/16 06:18:04;;;;;;;25.30;24.00;;;;;;;;;;4992142;28;21007;-79
2024/02/16 06:20:31;;;;;;;25.97;24.40;;;;;;;;;;4973379;28;20766;-78
2024/02/16 06:22:58;;;;;;;26.90;25.37;;;;;;;;;;4973454;28;20922;-79
2024/02/16 06:25:27;;;;;;;25.80;24.43;;;;;;;;;;4975937;28;21066;-78
2024/02/16 06:27:54;;;;;;;24.37;23.17;;;;;;;;;;4982789;28;20474;-78
2024/02/16 06:30:21;;;;;;;25.40;24.10;;;;;;;;;;4995099;28;20519;-77
2024/02/16 06:32:48;;;;;;;27.50;25.80;;;;;;;;;;4973232;28;20930;-77
2024/02/16 06:35:15;;;;;;;26.63;25.33;;;;;;;;;;4973544;28;20446;-79
2024/02/16 06:37:42;;;;;;;26.90;25.50;;;;;;;;;;4972684;28;21001;-79
2024/02/16 06:40:10;;;;;;;26.10;24.50;;;;;;;;;;4973580;28;21119;-78
2024/02/16 06:42:39;;;;;;;25.83;24.23;;;;;;;;;;4972980;28;20467;-79
2024/02/16 06:45:06;;;;;;;26.73;25.20;;;;;;;;;;4979754;28;20492;-79
2024/02/16 06:47:33;;;;;;;26.10;24.60;;;;;;;;;;4974409;28;20482;-78
2024/02/16 06:50:00;;;;;;;25.63;24.27;;;;;;;;;;4973201;28;20501;-78
2024/02/16 06:52:28;;;;;;;25.77;24.47;;;;;;;;;;4973466;28;20431;-78
2024/02/16 06:54:55;;;;;;;26.30;25.00;;;;;;;;;;4973255;28;20460;-78
2024/02/16 06:57:22;;;;;;;26.67;24.87;;;;;;;;;;4972319;28;21045;-79
2024/02/16 06:59:52;;;;;;;25.50;24.10;;;;;;;;;;4972582;28;20556;-78
2024/02/16 07:02:19;;;;;;;27.10;25.70;;;;;;;;;;5011787;28;20452;-78
2024/02/16 07:04:47;;;;;;;27.13;25.63;;;;;;;;;;5000983;28;20950;-78
2024/02/16 07:07:14;;;;;;;24.50;23.10;;;;;;;;;;4973525;28;21262;-79
2024/02/16 07:09:42;;;;;;;26.00;24.67;;;;;;;;;;4973338;28;20791;-77
2024/02/16 07:12:09;;;;;;;27.20;25.40;;;;;;;;;;4991010;28;21227;-77
2024/02/16 07:14:36;;;;;;;25.50;24.10;;;;;;;;;;4999043;28;20442;-77
2024/02/16 07:17:07;;;;;;;24.03;22.67;;;;;;;;;;4991881;28;20450;-77
2024/02/16 07:19:34;;;;;;;24.47;23.03;;;;;;;;;;4992357;28;20564;-77
2024/02/16 07:22:01;;;;;;;24.53;23.03;;;;;;;;;;4992821;28;20439;-75
2024/02/16 07:24:28;;;;;;;24.10;22.80;;;;;;;;;;4992260;28;20420;-77
2024/02/16 07:26:55;;;;;;;24.30;23.10;;;;;;;;;;4991726;28;20457;-77
2024/02/16 07:29:22;;;;;;;22.93;21.63;;;;;;;;;;4992024;28;20513;-77
2024/02/16 07:31:51;;;;;;;24.07;22.57;;;;;;;;;;4979319;28;20507;-77
2024/02/16 07:34:19;;;;;;;23.70;22.20;;;;;;;;;;5004475;28;20423;-77
2024/02/16 07:36:46;;;;;;;23.23;21.77;;;;;;;;;;4992575;28;20449;-78
2024/02/16 07:39:13;;;;;;;22.20;21.00;;;;;;;;;;4971857;28;20497;-77
2024/02/16 07:41:40;;;;;;;22.43;21.27;;;;;;;;;;4985147;28;20457;-78
2024/02/16 07:44:07;;;;;;;24.17;22.33;;;;;;;;;;4976113;28;20516;-78
2024/02/16 07:46:35;;;;;;;23.67;22.37;;;;;;;;;;4971713;28;20425;-76
2024/02/16 07:49:04;;;;;;;23.30;22.20;;;;;;;;;;4972095;28;20898;-77
2024/02/16 07:51:32;;;;;;;22.73;21.43;;;;;;;;;;4979976;28;20472;-77
2024/02/16 07:53:59;;;;;;;23.33;22.20;;;;;;;;;;4973437;28;20433;-77
2024/02/16 07:56:26;;;;;;;22.50;21.30;;;;;;;;;;4971762;28;20421;-77
2024/02/16 07:58:53;;;;;;;22.73;21.63;;;;;;;;;;4971607;28;20568;-77
2024/02/16 08:01:20;;;;;;;23.53;22.40;;;;;;;;;;4972217;28;20455;-78
2024/02/16 08:03:47;;;;;;;22.87;21.40;;;;;;;;;;4975157;28;20486;-77
2024/02/16 08:06:16;;;;;;;22.53;21.13;;;;;;;;;;4985659;28;20499;-77
2024/02/16 08:08:44;;;;;;;21.47;20.40;;;;;;;;;;4971982;28;20930;-79
2024/02/16 08:11:11;;;;;;;22.73;21.33;;;;;;;;;;4972304;28;20434;-77
2024/02/16 08:13:38;;;;;;;20.97;19.87;;;;;;;;;;4972422;28;20819;-77
2024/02/16 08:16:06;;;;;;;22.97;21.57;;;;;;;;;;4971675;28;20446;-78
2024/02/16 08:18:33;;;;;;;21.23;20.13;;;;;;;;;;4986053;28;21024;-77
2024/02/16 08:21:01;;;;;;;22.03;20.83;;;;;;;;;;5011081;28;20452;-77
2024/02/16 08:23:28;;;;;;;22.33;21.03;;;;;;;;;;4997237;28;20436;-78
2024/02/16 08:25:57;;;;;;;22.23;20.83;;;;;;;;;;4971282;28;20420;-76
2024/02/16 08:28:24;;;;;;;22.40;21.10;;;;;;;;;;4970812;28;20462;-77
2024/02/16 08:30:51;;;;;;;21.73;20.53;;;;;;;;;;4984267;28;20548;-82
2024/02/16 08:33:18;;;;;;;22.60;21.17;;;;;;;;;;4998101;28;20494;-86
2024/02/16 08:35:45;;;;;;;22.70;21.33;;;;;;;;;;4999338;28;20469;-85
2024/02/16 08:38:12;;;;;;;21.03;19.73;;;;;;;;;;5000300;28;20491;-80
2024/02/16 08:40:40;;;;;;;21.60;20.40;;;;;;;;;;5003955;28;20435;-80
2024/02/16 08:43:08;;;;;;;21.80;20.50;;;;;;;;;;5019926;28;20419;-80
2024/02/16 08:45:35;;;;;;;21.07;19.97;;;;;;;;;;5020195;28;20448;-80
2024/02/16 08:48:03;;;;;;;23.40;22.10;;;;;;;;;;5019424;28;20443;-80
2024/02/16 08:50:31;;;;;;;22.00;20.80;;;;;;;;;;5019586;28;20456;-81
2024/02/16 08:52:58;;;;;;;22.73;21.33;;;;;;;;;;5019522;28;20425;-82
2024/02/16 08:55:25;;;;;;;21.83;20.60;;;;;;;;;;5018685;28;20460;-79
2024/02/16 08:57:52;;;;;;;20.17;19.07;;;;;;;;;;5013860;28;20807;-81
2024/02/16 09:00:20;;;;;;;20.17;19.07;;;;;;;;;;4975039;28;20458;-80
2024/02/16 09:02:47;;;;;;;21.30;20.13;;;;;;;;;;4975731;28;20454;-79
2024/02/16 09:05:14;;;;;;;21.97;20.50;;;;;;;;;;4975151;28;20509;-80
2024/02/16 09:07:41;;;;;;;20.93;19.77;;;;;;;;;;4973460;28;20482;-80
2024/02/16 09:10:09;;;;;;;19.80;18.60;;;;;;;;;;4973895;28;20417;-80
2024/02/16 09:12:36;;;;;;;19.83;18.70;;;;;;;;;;4974526;28;20464;-80
2024/02/16 09:15:03;;;;;;;19.03;18.07;;;;;;;;;;4974702;28;20471;-79
2024/02/16 09:17:32;;;;;;;19.90;18.77;;;;;;;;;;4973514;28;20454;-80
2024/02/16 09:19:59;;;;;;;18.73;17.73;;;;;;;;;;4974643;28;20490;-80
2024/02/16 09:22:26;;;;;;;20.33;19.23;;;;;;;;;;4974356;28;20533;-79
2024/02/16 09:24:54;;;;;;;20.30;18.90;;;;;;;;;;4973085;28;20462;-79
2024/02/16 09:27:24;;;;;;;18.80;17.90;;;;;;;;;;4987022;28;20452;-86
2024/02/16 09:29:50;;;;;;;19.37;18.47;;;;;;;;;;5017752;28;20453;-81
2024/02/16 09:32:17;;;;;;;18.70;17.60;;;;;;;;;;5018631;28;20452;-81
2024/02/16 09:34:46;;;;;;;19.77;18.67;;;;;;;;;;5013108;28;20809;-79
2024/02/16 09:37:13;;;;;;;21.07;19.93;;;;;;;;;;4990608;28;20849;-79
2024/02/16 09:39:47;;;;;;;20.20;19.20;;;;;;;;;;5011490;28;20595;-90
2024/02/16 09:42:16;;;;;;;19.43;18.43;;;;;;;;;;5018082;28;20523;-91
2024/02/16 09:44:44;;;;;;;20.30;19.30;;;;;;;;;;4999984;28;20465;-77
2024/02/16 09:47:13;;;;;;;19.90;18.90;;;;;;;;;;5000322;28;20453;-84
2024/02/16 09:49:40;;;;;;;20.40;19.40;;;;;;;;;;5004249;28;20958;-83
2024/02/16 09:52:10;;;;;;;19.73;18.73;;;;;;;;;;5000773;28;20458;-85
2024/02/16 09:54:38;;;;;;;19.67;18.50;;;;;;;;;;4984912;28;20435;-84
2024/02/16 09:57:05;;;;;;;20.37;19.07;;;;;;;;;;4984101;28;21014;-83
2024/02/16 09:59:32;;;;;;;20.53;19.53;;;;;;;;;;4986526;28;20498;-84
2024/02/16 10:02:02;;;;;;;20.27;19.20;;;;;;;;;;4980754;28;20458;-80
2024/02/16 10:04:29;;;;;;;20.20;19.20;;;;;;;;;;4979936;28;20458;-80
2024/02/16 10:06:57;;;;;;;20.17;19.17;;;;;;;;;;4979345;28;20854;-88
2024/02/16 10:09:26;;;;;;;18.27;17.30;;;;;;;;;;4995763;28;20488;-81
2024/02/16 10:11:53;;;;;;;18.50;17.60;;;;;;;;;;4997329;28;20453;-79
2024/02/16 10:14:20;;;;;;;19.47;18.50;;;;;;;;;;4999837;28;20444;-84
2024/02/16 10:16:47;;;;;;;18.33;17.43;;;;;;;;;;4981737;28;21068;-86
2024/02/16 10:19:15;;;;;;;19.63;18.53;;;;;;;;;;4980360;28;21159;-87
2024/02/16 10:21:43;;;;;;;18.80;17.60;;;;;;;;;;4996517;28;20870;-88
2024/02/16 10:24:10;;;;;;;20.33;19.27;;;;;;;;;;4998608;28;20452;-88
2024/02/16 10:26:39;;;;;;;20.53;19.53;;;;;;;;;;4998380;28;20457;-87
2024/02/16 10:29:08;;;;;;;20.80;18.90;;;;;;;;;;4996818;28;20466;-87
2024/02/16 10:31:35;;;;;;;18.80;17.90;;;;;;;;;;4981989;28;20587;-81
2024/02/16 10:34:05;;;;;;;19.33;18.30;;;;;;;;;;4980931;28;20485;-79
2024/02/16 10:36:32;;;;;;;20.00;18.80;;;;;;;;;;4995932;28;20485;-80
2024/02/16 10:39:04;;;;;;;19.63;18.47;;;;;;;;;;5000480;28;20543;-80
2024/02/16 10:41:31;;;;;;;18.60;17.70;;;;;;;;;;5001038;28;20441;-81
2024/02/16 10:44:00;;;;;;;19.40;18.20;;;;;;;;;;4989215;28;20523;-80
2024/02/16 10:46:27;;;;;;;19.40;18.30;;;;;;;;;;4989343;28;20457;-80
2024/02/16 10:48:54;;;;;;;19.37;18.37;;;;;;;;;;4984634;28;20521;-80
2024/02/16 10:51:22;;;;;;;19.87;18.60;;;;;;;;;;4991521;28;20450;-80
2024/02/16 10:53:49;;;;;;;19.23;18.23;;;;;;;;;;4982182;28;20446;-80
2024/02/16 10:56:16;;;;;;;20.20;18.80;;;;;;;;;;4990239;28;20953;-81
2024/02/16 10:58:43;;;;;;;19.47;18.37;;;;;;;;;;4990018;28;20924;-79
2024/02/16 11:01:12;;;;;;;19.67;18.47;;;;;;;;;;4981222;28;20453;-81
2024/02/16 11:03:39;;;;;;;18.93;17.80;;;;;;;;;;4985444;28;20458;-81
2024/02/16 11:06:16;;;;;;;19.33;18.33;;;;;;;;;;4981478;28;20502;-81
2024/02/16 11:08:43;;;;;;;18.43;17.53;;;;;;;;;;4982480;28;20464;-81
2024/02/16 11:11:11;;;;;;;19.57;18.43;;;;;;;;;;4982661;28;20525;-81
2024/02/16 11:13:39;;;;;;;19.70;18.53;;;;;;;;;;4981702;28;20548;-81
2024/02/16 11:16:08;;;;;;;19.37;18.10;;;;;;;;;;4981770;28;20510;-82
2024/02/16 11:18:40;;;;;;;18.63;17.70;;;;;;;;;;4981481;28;20466;-81
2024/02/16 11:21:07;;;;;;;19.70;18.30;;;;;;;;;;4982530;28;20466;-81
2024/02/16 11:23:36;;;;;;;20.37;19.27;;;;;;;;;;4982125;28;20450;-81
2024/02/16 11:26:03;;;;;;;19.07;18.00;;;;;;;;;;4982687;28;20458;-81
2024/02/16 11:28:32;;;;;;;19.93;18.73;;;;;;;;;;4978754;28;20518;-79
2024/02/16 11:30:59;;;;;;;20.10;18.70;;;;;;;;;;4976036;28;20454;-79
2024/02/16 11:33:27;;;;;;;19.30;18.20;;;;;;;;;;4975221;28;20458;-80
2024/02/16 11:35:56;;;;;;;18.60;17.57;;;;;;;;;;4976831;28;20465;-79
2024/02/16 11:38:23;;;;;;;18.90;17.90;;;;;;;;;;4988507;28;20477;-80
2024/02/16 11:40:57;;;;;;;19.73;18.43;;;;;;;;;;4995474;28;20489;-80
2024/02/16 11:43:24;;;;;;;20.10;18.90;;;;;;;;;;4992363;28;20506;-80
2024/02/16 11:45:51;;;;;;;19.97;18.77;;;;;;;;;;4978237;28;20498;-80
2024/02/16 11:48:23;;;;;;;19.63;18.43;;;;;;;;;;4989699;28;20549;-79
2024/02/16 11:50:50;;;;;;;19.27;18.17;;;;;;;;;;4994848;28;20485;-79
2024/02/16 11:53:20;;;;;;;20.03;18.60;;;;;;;;;;4994698;28;20449;-79
2024/02/16 11:55:48;;;;;;;19.73;18.43;;;;;;;;;;4994903;28;20449;-81
2024/02/16 11:58:16;;;;;;;20.23;18.97;;;;;;;;;;4995017;28;20504;-80
2024/02/16 12:00:43;;;;;;;19.90;18.60;;;;;;;;;;4994822;28;20488;-80
2024/02/16 12:03:10;;;;;;;20.10;18.80;;;;;;;;;;4995424;28;20449;-80
2024/02/16 12:05:37;;;;;;;20.77;19.47;;;;;;;;;;4994677;28;20449;-80
2024/02/16 12:08:04;;;;;;;19.50;18.40;;;;;;;;;;4994541;28;20797;-79
2024/02/16 12:10:33;;;;;;;20.80;19.50;;;;;;;;;;4995269;28;20453;-80
2024/02/16 12:13:00;;;;;;;19.30;18.13;;;;;;;;;;4996332;28;20454;-81
2024/02/16 12:15:27;;;;;;;19.70;18.50;;;;;;;;;;4996064;28;20453;-80
2024/02/16 12:18:01;;;;;;;18.80;17.57;;;;;;;;;;4995069;28;20477;-79
2024/02/16 12:20:28;;;;;;;19.60;18.27;;;;;;;;;;4995252;28;20485;-80
2024/02/16 12:22:55;;;;;;;18.60;17.60;;;;;;;;;;4995847;28;21108;-80
2024/02/16 12:25:22;;;;;;;18.93;17.70;;;;;;;;;;4995101;28;20438;-79
2024/02/16 12:27:51;;;;;;;20.77;18.97;;;;;;;;;;4993611;28;21081;-81
2024/02/16 12:30:18;;;;;;;19.33;18.07;;;;;;;;;;4994564;28;20451;-80
2024/02/16 12:32:45;;;;;;;18.80;17.70;;;;;;;;;;4995622;28;20460;-79
2024/02/16 12:35:12;;;;;;;18.70;17.80;;;;;;;;;;4994913;28;20481;-80
2024/02/16 12:37:39;;;;;;;18.40;17.40;;;;;;;;;;4994962;28;20495;-80
2024/02/16 12:40:07;;;;;;;19.87;18.47;;;;;;;;;;4994729;28;20489;-79
2024/02/16 12:42:34;;;;;;;19.60;18.10;;;;;;;;;;4995379;28;20445;-80
2024/02/16 12:45:02;;;;;;;24.97;20.90;;;;;;;;;;4997085;28;20449;-79
2024/02/16 12:47:29;;;;;;;19.03;17.93;;;;;;;;;;5000765;28;20517;-80
2024/02/16 12:49:58;;;;;;;21.87;20.23;;;;;;;;;;5001617;28;20949;-80
2024/02/16 12:52:25;;;;;;;21.37;19.67;;;;;;;;;;5001417;28;20516;-81
2024/02/16 12:54:53;;;;;;;20.03;18.67;;;;;;;;;;5000413;28;20500;-79
2024/02/16 12:57:20;;;;;;;19.63;18.30;;;;;;;;;;4989534;28;20512;-79
2024/02/16 12:59:46;;;;;;;20.27;18.90;;;;;;;;;;4976998;28;20490;-79
2024/02/16 13:02:15;;;;;;;19.60;18.50;;;;;;;;;;4988787;28;20490;-80
2024/02/16 13:04:42;;;;;;;19.80;18.47;;;;;;;;;;4996037;28;20454;-81
2024/02/16 13:07:09;;;;;;;19.50;18.30;;;;;;;;;;4995583;28;20449;-80
2024/02/16 13:09:36;;;;;;;21.03;19.63;;;;;;;;;;4995466;28;20532;-81
2024/02/16 13:12:04;;;;;;;21.53;19.70;;;;;;;;;;4997995;28;20464;-80
2024/02/16 13:14:31;;;;;;;19.93;18.53;;;;;;;;;;4998905;28;21004;-80
2024/02/16 13:16:58;;;;;;;20.23;19.03;;;;;;;;;;4997724;28;20503;-80
2024/02/16 13:19:27;;;;;;;21.73;19.90;;;;;;;;;;5006325;28;20869;-79
2024/02/16 13:21:54;;;;;;;19.93;18.50;;;;;;;;;;5019051;28;20805;-81
2024/02/16 13:24:21;;;;;;;21.90;20.27;;;;;;;;;;5019222;28;20518;-80
2024/02/16 13:26:48;;;;;;;20.30;19.10;;;;;;;;;;5017994;28;20441;-82
2024/02/16 13:29:15;;;;;;;21.17;19.67;;;;;;;;;;5015566;28;20881;-80
2024/02/16 13:31:42;;;;;;;21.97;20.30;;;;;;;;;;4998716;28;20503;-77
2024/02/16 13:34:09;;;;;;;21.07;19.53;;;;;;;;;;4998496;28;21213;-80
2024/02/16 13:36:37;;;;;;;22.03;20.40;;;;;;;;;;4999796;28;20519;-80
2024/02/16 13:39:05;;;;;;;21.77;20.37;;;;;;;;;;5001184;28;20469;-79
2024/02/16 13:41:32;;;;;;;23.37;21.43;;;;;;;;;;5003063;28;20453;-80
2024/02/16 13:43:59;;;;;;;21.40;20.00;;;;;;;;;;4999464;28;20451;-77
2024/02/16 13:46:26;;;;;;;21.43;19.93;;;;;;;;;;4994020;28;20503;-77
2024/02/16 13:48:54;;;;;;;20.90;19.40;;;;;;;;;;4994316;28;20469;-77
2024/02/16 13:51:21;;;;;;;22.20;20.67;;;;;;;;;;4994517;28;20445;-76
2024/02/16 13:53:51;;;;;;;23.70;22.20;;;;;;;;;;4994369;28;20462;-76
2024/02/16 13:56:18;;;;;;;21.30;19.80;;;;;;;;;;4995126;28;20445;-85
2024/02/16 13:58:47;;;;;;;21.13;19.63;;;;;;;;;;4997181;28;20481;-88
2024/02/16 14:01:14;;;;;;;24.13;22.33;;;;;;;;;;5001999;28;20486;-80
2024/02/16 14:03:41;;;;;;;24.70;22.90;;;;;;;;;;4995838;28;20536;-78
2024/02/16 14:06:10;;;;;;;23.50;21.83;;;;;;;;;;4994324;28;20458;-80
2024/02/16 14:08:37;;;;;;;24.33;22.73;;;;;;;;;;4984818;28;20476;-82
2024/02/16 14:11:05;;;;;;;26.60;24.57;;;;;;;;;;4980306;28;20501;-82
2024/02/16 14:13:32;;;;;;;25.53;23.73;;;;;;;;;;4994249;28;20485;-85
2024/02/16 14:15:59;;;;;;;23.50;21.90;;;;;;;;;;4986247;28;20458;-84
2024/02/16 14:18:27;;;;;;;26.53;24.53;;;;;;;;;;4992982;28;20540;-80